Time;durP1;ratioP1;P1;durP2;ratioP2;P2;SDS_P1;SDS_P2;PMS_P1;PMS_P2;Temp;Humidity;BMP_temperature;BMP_pressure;BME280_temperature;BME280_humidity;BME280_pressure;Samples;Min_cycle;Max_cycle;Signal;HPM_P1;HPM_P2
2022/09/14 00:01:20;;;;;;;;;0.00;0.00;;;;;17.58;61.99;100938.75;5028661;28;8862;-66
2022/09/14 00:04:01;;;;;;;;;0.00;0.00;;;;;17.55;61.88;100931.09;5030389;28;8817;-65
2022/09/14 00:06:29;;;;;;;;;1.00;0.00;;;;;17.53;62.09;100930.47;5045452;28;8829;-66
2022/09/14 00:08:57;;;;;;;;;0.00;0.00;;;;;17.53;62.09;100935.91;5042147;28;8864;-65
2022/09/14 00:11:27;;;;;;;;;0.00;0.00;;;;;17.52;61.99;100931.56;5029714;28;8883;-65
2022/09/14 00:13:56;;;;;;;;;0.00;0.00;;;;;17.52;62.16;100923.38;5033952;28;8852;-65
2022/09/14 00:16:26;;;;;;;;;1.50;0.00;;;;;17.51;62.35;100924.47;5024805;28;9062;-65
2022/09/14 00:18:59;;;;;;;;;0.00;0.00;;;;;17.48;62.09;100917.59;5036818;28;8833;-65
2022/09/14 00:21:26;;;;;;;;;0.00;0.00;;;;;17.49;62.24;100921.13;5032117;28;8872;-65
2022/09/14 00:23:53;;;;;;;;;0.00;0.00;;;;;17.49;62.38;100911.06;5035226;28;8856;-68
2022/09/14 00:26:21;;;;;;;;;0.00;0.00;;;;;17.48;62.43;100917.59;5037663;28;8848;-67
2022/09/14 00:28:50;;;;;;;;;1.00;1.00;;;;;17.49;62.38;100908.34;5025130;28;8858;-67
2022/09/14 00:31:18;;;;;;;;;1.00;0.00;;;;;17.49;62.32;100911.06;5029034;28;8821;-67
2022/09/14 00:33:47;;;;;;;;;1.25;0.75;;;;;17.51;62.01;100903.50;5029785;28;8847;-67
2022/09/14 00:36:17;;;;;;;;;0.00;0.00;;;;;17.52;62.01;100905.16;5033349;28;8836;-67
2022/09/14 00:38:45;;;;;;;;;0.00;0.00;;;;;17.51;61.77;100899.97;5049326;28;8960;-65
2022/09/14 00:41:24;;;;;;;;;0.00;0.00;;;;;17.53;62.06;100908.69;5028530;28;8848;-68
2022/09/14 00:43:50;;;;;;;;;0.00;0.00;;;;;17.54;61.70;100902.19;5023391;28;8829;-65
2022/09/14 00:46:16;;;;;;;;;0.00;0.00;;;;;17.54;61.70;100891.31;5025721;28;8848;-65
2022/09/14 00:48:43;;;;;;;;;0.00;0.00;;;;;17.54;61.42;100885.84;5039744;28;8842;-65
2022/09/14 00:51:10;;;;;;;;;0.00;0.00;;;;;17.55;61.51;100882.09;5029930;28;8832;-65
2022/09/14 00:53:36;;;;;;;;;1.00;0.00;;;;;17.55;61.58;100876.66;5030202;28;8859;-65
2022/09/14 00:56:03;;;;;;;;;0.75;0.00;;;;;17.58;61.14;100883.50;5026826;28;9527;-65
2022/09/14 00:58:29;;;;;;;;;0.00;0.00;;;;;17.59;61.33;100879.72;5040656;28;8947;-65
2022/09/14 01:00:57;;;;;;;;;0.00;0.00;;;;;17.60;61.06;100870.47;5030670;28;8967;-65
2022/09/14 01:03:24;;;;;;;;;0.00;0.00;;;;;17.63;61.19;100875.44;5031826;28;8857;-65
2022/09/14 01:06:08;;;;;;;;;0.00;0.00;;;;;17.66;61.02;100873.06;5042710;28;8834;-65
2022/09/14 01:08:56;;;;;;;;;0.00;0.00;;;;;17.67;61.21;100865.72;5023733;28;8855;-65
2022/09/14 01:11:36;;;;;;;;;0.00;0.00;;;;;17.65;61.28;100868.69;5025327;28;8842;-65
2022/09/14 01:14:30;;;;;;;;;0.00;0.00;;;;;17.65;61.36;100865.97;5028925;28;8879;-65
2022/09/14 01:17:17;;;;;;;;;0.00;0.00;;;;;17.64;61.44;100860.75;5023154;28;8806;-66
2022/09/14 01:20:06;;;;;;;;;0.00;0.00;;;;;17.62;61.42;100858.25;5026339;28;8863;-66
2022/09/14 01:22:43;;;;;;;;;0.00;0.00;;;;;17.60;61.48;100854.16;5013937;28;8841;-66
2022/09/14 01:25:32;;;;;;;;;0.00;0.00;;;;;17.57;61.70;100850.00;5038117;28;8837;-66
2022/09/14 01:28:02;;;;;;;;;0.00;0.00;;;;;17.55;61.75;100852.97;5027136;28;8905;-66
2022/09/14 01:30:33;;;;;;;;;0.75;0.00;;;;;17.54;62.01;100850.47;5032073;28;8884;-66
2022/09/14 01:33:14;;;;;;;;;0.00;0.00;;;;;17.51;62.17;100843.63;5031734;28;8856;-66
2022/09/14 01:35:48;;;;;;;;;0.00;0.00;;;;;17.50;62.33;100847.44;5032322;28;9527;-65
2022/09/14 01:38:28;;;;;;;;;0.00;0.00;;;;;17.49;62.45;100836.75;5028563;28;8831;-66
2022/09/14 01:40:58;;;;;;;;;0.00;0.00;;;;;17.49;62.60;100839.50;5023885;28;8848;-66
2022/09/14 01:43:31;;;;;;;;;0.75;0.75;;;;;17.46;62.74;100837.25;5035634;28;8837;-66
2022/09/14 01:46:07;;;;;;;;;0.00;0.00;;;;;17.46;63.01;100838.09;5029629;28;8872;-65
2022/09/14 01:48:41;;;;;;;;;0.00;0.00;;;;;17.44;63.09;100825.78;5032488;28;8864;-66
2022/09/14 01:51:14;;;;;;;;;1.75;0.00;;;;;17.43;62.87;100835.03;5039359;28;8860;-66
2022/09/14 01:53:48;;;;;;;;;0.00;0.00;;;;;17.43;62.98;100830.41;5030721;28;8820;-66
2022/09/14 01:56:31;;;;;;;;;0.25;0.25;;;;;17.43;62.99;100832.28;5031431;28;9534;-66
2022/09/14 01:59:09;;;;;;;;;0.00;0.00;;;;;17.44;63.06;100829.31;5021703;28;8961;-67
2022/09/14 02:01:42;;;;;;;;;0.00;0.00;;;;;17.45;63.20;100824.69;5031089;28;8844;-66
2022/09/14 02:04:21;;;;;;;;;1.00;1.00;;;;;17.45;63.20;100819.25;5028669;28;8808;-66
2022/09/14 02:06:48;;;;;;;;;0.00;0.00;;;;;17.45;62.98;100819.25;5031867;28;8890;-66
2022/09/14 02:09:20;;;;;;;;;0.00;0.00;;;;;17.44;63.04;100820.34;5033053;28;8828;-66
2022/09/14 02:11:47;;;;;;;;;0.00;0.00;;;;;17.42;63.05;100809.72;5039391;28;9099;-66
2022/09/14 02:14:13;;;;;;;;;0.25;0.25;;;;;17.42;63.27;100812.44;5034366;28;8836;-66
2022/09/14 02:16:42;;;;;;;;;1.25;0.00;;;;;17.43;63.54;100818.69;5026394;28;9571;-66
2022/09/14 02:19:09;;;;;;;;;0.00;0.00;;;;;17.43;63.18;100816.78;5027851;28;8877;-66
2022/09/14 02:21:37;;;;;;;;;0.00;0.00;;;;;17.42;63.48;100814.28;5032712;28;8856;-66
2022/09/14 02:24:04;;;;;;;;;0.00;0.00;;;;;17.42;63.45;100806.97;5028231;28;8836;-66
2022/09/14 02:26:31;;;;;;;;;0.00;0.00;;;;;17.41;63.35;100805.31;5031322;28;8828;-66
2022/09/14 02:28:57;;;;;;;;;0.00;0.00;;;;;17.40;63.52;100806.38;5047283;28;9653;-66
2022/09/14 02:31:54;;;;;;;;;0.00;0.00;;;;;17.39;64.04;100798.47;5042150;28;8883;-66
2022/09/14 02:34:42;;;;;;;;;0.00;0.00;;;;;17.38;63.67;100794.06;5031652;28;8934;-66
2022/09/14 02:37:34;;;;;;;;;0.00;0.00;;;;;17.36;64.16;100794.31;5027034;28;9006;-66
2022/09/14 02:40:26;;;;;;;;;0.00;0.00;;;;;17.36;64.27;100782.63;5011903;28;8851;-66
2022/09/14 02:43:10;;;;;;;;;0.25;0.00;;;;;17.34;64.53;100788.31;5032378;28;8856;-66
2022/09/14 02:45:37;;;;;;;;;0.00;0.00;;;;;17.34;64.27;100782.00;5023831;28;8835;-65
2022/09/14 02:48:32;;;;;;;;;0.00;0.00;;;;;17.34;64.17;100787.47;5020616;28;8857;-66
2022/09/14 02:51:08;;;;;;;;;1.00;0.00;;;;;17.32;64.57;100779.53;5012901;28;8919;-66
2022/09/14 02:53:52;;;;;;;;;0.00;0.00;;;;;17.34;64.53;100776.56;5031333;28;8836;-66
2022/09/14 02:56:20;;;;;;;;;0.00;0.00;;;;;17.32;64.75;100774.09;5039030;28;8833;-66
2022/09/14 02:58:46;;;;;;;;;1.50;0.00;;;;;17.32;64.58;100773.28;5051241;28;8853;-66
2022/09/14 03:01:18;;;;;;;;;1.00;1.00;;;;;17.30;64.95;100770.81;5042764;28;8841;-65
2022/09/14 03:03:45;;;;;;;;;0.00;0.00;;;;;17.29;64.70;100772.69;5034077;28;8837;-65
2022/09/14 03:06:11;;;;;;;;;0.00;0.00;;;;;17.28;64.85;100768.31;5030817;28;8836;-65
2022/09/14 03:08:38;;;;;;;;;0.00;0.00;;;;;17.29;64.90;100767.25;5029484;28;8836;-66
2022/09/14 03:11:05;;;;;;;;;0.00;0.00;;;;;17.27;65.20;100761.22;5035361;28;8953;-66
2022/09/14 03:13:33;;;;;;;;;0.00;0.00;;;;;17.28;64.81;100762.06;5022353;28;8840;-66
2022/09/14 03:16:05;;;;;;;;;0.75;0.00;;;;;17.26;64.99;100754.13;5022558;28;8855;-66
2022/09/14 03:18:32;;;;;;;;;1.00;0.00;;;;;17.26;65.34;100762.31;5028037;28;8852;-66
2022/09/14 03:21:07;;;;;;;;;0.75;0.75;;;;;17.25;65.48;100749.75;5026814;28;8822;-66
2022/09/14 03:23:39;;;;;;;;;0.00;0.00;;;;;17.25;65.45;100743.47;5033809;28;8834;-66
2022/09/14 03:26:13;;;;;;;;;0.00;0.00;;;;;17.24;65.37;100744.56;5033762;28;10760;-66
2022/09/14 03:28:41;;;;;;;;;0.00;0.00;;;;;17.23;65.60;100743.72;5040089;28;8840;-66
2022/09/14 03:31:09;;;;;;;;;0.00;0.00;;;;;17.22;65.38;100743.97;5032878;28;9540;-66
2022/09/14 03:33:36;;;;;;;;;0.00;0.00;;;;;17.21;65.39;100747.75;5034613;28;8848;-66
2022/09/14 03:36:18;;;;;;;;;0.50;0.50;;;;;17.20;65.58;100741.47;5026544;28;8828;-66
2022/09/14 03:38:46;;;;;;;;;0.00;0.00;;;;;17.21;65.51;100731.44;5028315;28;8840;-66
2022/09/14 03:41:13;;;;;;;;;0.00;0.00;;;;;17.20;65.70;100733.31;5034722;28;9543;-65
2022/09/14 03:43:41;;;;;;;;;0.25;0.25;;;;;17.21;65.53;100734.16;5028794;28;8879;-65
2022/09/14 03:46:10;;;;;;;;;0.00;0.00;;;;;17.21;65.75;100732.25;5029661;28;8902;-65
2022/09/14 03:48:37;;;;;;;;;0.00;0.00;;;;;17.19;65.84;100739.00;5033567;28;8860;-66
2022/09/14 03:51:06;;;;;;;;;0.00;0.00;;;;;17.19;65.94;100733.56;5033687;28;8851;-66
2022/09/14 03:53:33;;;;;;;;;0.00;0.00;;;;;17.18;65.98;100738.19;5031020;28;8931;-66
2022/09/14 03:55:59;;;;;;;;;0.25;0.25;;;;;17.18;66.38;100734.66;5029706;28;8864;-66
2022/09/14 03:58:29;;;;;;;;;0.00;0.00;;;;;17.17;66.46;100741.97;5037794;28;9583;-66
2022/09/14 04:01:05;;;;;;;;;1.00;1.00;;;;;17.16;66.47;100734.88;5034813;28;8836;-66
2022/09/14 04:03:32;;;;;;;;;0.00;0.00;;;;;17.16;66.42;100736.78;5030009;28;8935;-67
2022/09/14 04:05:59;;;;;;;;;0.00;0.00;;;;;17.15;66.62;100729.69;5038088;28;8809;-65
2022/09/14 04:08:26;;;;;;;;;0.50;0.50;;;;;17.14;66.64;100728.88;5035356;28;8846;-65
2022/09/14 04:10:52;;;;;;;;;1.00;1.00;;;;;17.14;66.78;100717.97;5011761;28;8836;-65
2022/09/14 04:13:19;;;;;;;;;1.50;1.00;;;;;17.14;66.86;100719.88;5018701;28;8835;-65
2022/09/14 04:15:55;;;;;;;;;0.25;0.25;;;;;17.14;66.76;100712.53;5031858;28;8843;-65
2022/09/14 04:18:21;;;;;;;;;0.50;0.50;;;;;17.14;66.90;100709.81;5028381;28;8941;-65
2022/09/14 04:20:54;;;;;;;;;0.00;0.00;;;;;17.15;66.87;100713.38;5036314;28;8814;-65
2022/09/14 04:23:20;;;;;;;;;0.00;0.00;;;;;17.17;66.77;100712.03;5032252;28;8841;-65
2022/09/14 04:25:47;;;;;;;;;0.00;0.00;;;;;17.17;66.51;100709.31;5030474;28;8923;-67
2022/09/14 04:28:13;;;;;;;;;0.00;0.00;;;;;17.19;66.47;100711.81;5016328;28;8855;-66
2022/09/14 04:30:55;;;;;;;;;1.00;1.00;;;;;17.19;66.64;100712.63;5027325;28;8855;-66
2022/09/14 04:33:22;;;;;;;;;0.00;0.00;;;;;17.19;66.74;100715.34;5023679;28;8831;-66
2022/09/14 04:36:00;;;;;;;;;0.75;0.75;;;;;17.18;66.73;100711.00;5029679;28;8844;-66
2022/09/14 04:38:29;;;;;;;;;0.75;0.75;;;;;17.17;66.63;100712.03;5027927;28;8844;-66
2022/09/14 04:40:56;;;;;;;;;0.00;0.00;;;;;17.16;66.49;100718.56;5009545;28;8869;-66
2022/09/14 04:43:24;;;;;;;;;1.00;0.00;;;;;17.16;66.61;100717.72;5029465;28;8850;-66
2022/09/14 04:45:52;;;;;;;;;0.00;0.00;;;;;17.16;66.13;100718.56;5025278;28;8851;-66
2022/09/14 04:48:19;;;;;;;;;1.00;1.00;;;;;17.15;66.47;100707.94;5017052;28;8972;-66
2022/09/14 04:50:45;;;;;;;;;0.00;0.00;;;;;17.13;65.96;100701.88;5024925;28;8844;-66
2022/09/14 04:53:12;;;;;;;;;0.00;0.00;;;;;17.14;66.25;100701.66;5018757;28;8827;-66
2022/09/14 04:55:38;;;;;;;;;0.00;0.00;;;;;17.17;66.19;100708.50;5025080;28;8863;-66
2022/09/14 04:58:05;;;;;;;;;0.00;0.00;;;;;17.18;65.62;100704.72;5011962;28;8850;-69
2022/09/14 05:00:34;;;;;;;;;0.00;0.00;;;;;17.17;65.41;100708.50;5029221;28;8857;-67
2022/09/14 05:03:03;;;;;;;;;1.00;1.00;;;;;17.15;65.65;100706.03;5032503;28;8843;-66
2022/09/14 05:05:34;;;;;;;;;0.00;0.00;;;;;17.13;65.59;100708.16;5033780;28;8860;-67
2022/09/14 05:08:01;;;;;;;;;1.00;1.00;;;;;17.12;65.54;100711.94;5031056;28;8860;-67
2022/09/14 05:10:28;;;;;;;;;0.00;0.00;;;;;17.12;65.46;100711.94;5032379;28;8890;-67
2022/09/14 05:12:55;;;;;;;;;1.00;0.00;;;;;17.12;65.84;100711.94;5032961;28;8898;-68
2022/09/14 05:15:21;;;;;;;;;0.00;0.00;;;;;17.12;66.17;100705.69;5033301;28;8846;-66
2022/09/14 05:17:48;;;;;;;;;2.00;0.00;;;;;17.11;65.91;100704.84;5029805;28;8859;-67
2022/09/14 05:20:14;;;;;;;;;0.75;0.75;;;;;17.11;65.98;100704.84;5013546;28;8835;-67
2022/09/14 05:22:41;;;;;;;;;0.75;0.75;;;;;17.10;66.09;100708.66;5013223;28;8990;-67
2022/09/14 05:25:08;;;;;;;;;0.00;0.00;;;;;17.10;66.14;100705.09;5013633;28;8827;-67
2022/09/14 05:27:34;;;;;;;;;1.00;1.00;;;;;17.08;66.06;100704.50;5013137;28;8835;-67
2022/09/14 05:30:01;;;;;;;;;0.50;0.50;;;;;17.08;66.40;100707.22;5031872;28;8914;-66
2022/09/14 05:32:27;;;;;;;;;0.00;0.00;;;;;17.09;66.25;100696.09;5032130;28;8855;-67
2022/09/14 05:34:54;;;;;;;;;1.00;0.00;;;;;17.10;66.59;100688.78;5032517;28;8878;-67
2022/09/14 05:37:21;;;;;;;;;1.75;1.00;;;;;17.11;66.59;100690.44;5032699;28;8832;-67
2022/09/14 05:39:47;;;;;;;;;0.00;0.00;;;;;17.09;66.36;100693.38;5027860;28;8886;-64
2022/09/14 05:42:14;;;;;;;;;0.00;0.00;;;;;17.10;66.68;100702.38;5032416;28;8837;-66
2022/09/14 05:44:40;;;;;;;;;0.00;0.00;;;;;17.10;66.86;100700.50;5032112;28;8877;-66
2022/09/14 05:47:07;;;;;;;;;0.00;0.00;;;;;17.10;66.84;100692.34;5024032;28;8824;-67
2022/09/14 05:49:33;;;;;;;;;0.00;0.00;;;;;17.12;66.80;100684.75;5031745;28;8825;-65
2022/09/14 05:52:00;;;;;;;;;0.25;0.25;;;;;17.12;66.52;100678.47;5020290;28;8827;-64
2022/09/14 05:54:26;;;;;;;;;0.00;0.00;;;;;17.16;66.32;100687.81;5031106;28;8840;-65
2022/09/14 05:56:53;;;;;;;;;0.00;0.00;;;;;17.15;66.06;100686.16;5032047;28;8836;-64
2022/09/14 05:59:19;;;;;;;;;0.50;0.50;;;;;17.16;66.39;100698.69;5032261;28;8859;-64
2022/09/14 06:01:45;;;;;;;;;0.00;0.00;;;;;17.16;66.42;100690.53;5033454;28;8841;-65
2022/09/14 06:04:12;;;;;;;;;0.00;0.00;;;;;17.15;66.00;100687.00;5016181;28;8862;-64
2022/09/14 06:06:38;;;;;;;;;1.00;1.00;;;;;17.16;66.25;100691.34;5014057;28;8815;-65
2022/09/14 06:09:05;;;;;;;;;2.00;0.25;;;;;17.16;66.69;100698.69;5023672;28;8844;-65
2022/09/14 06:11:37;;;;;;;;;0.00;0.00;;;;;17.15;66.78;100700.59;5030639;28;8824;-65
2022/09/14 06:14:04;;;;;;;;;1.00;0.00;;;;;17.16;66.51;100704.13;5023657;28;8835;-65
2022/09/14 06:16:31;;;;;;;;;0.00;0.00;;;;;17.16;66.86;100698.69;5011932;28;8859;-65
2022/09/14 06:18:58;;;;;;;;;1.00;1.00;;;;;17.17;66.84;100694.91;5011642;28;8847;-65
2022/09/14 06:21:30;;;;;;;;;1.50;1.50;;;;;17.18;66.98;100691.94;5012071;28;8835;-65
2022/09/14 06:23:57;;;;;;;;;1.25;1.25;;;;;17.20;67.13;100699.84;5012108;28;8917;-63
2022/09/14 06:26:24;;;;;;;;;1.00;1.00;;;;;17.20;67.26;100700.69;5016821;28;8879;-65
2022/09/14 06:28:52;;;;;;;;;1.00;1.00;;;;;17.23;67.11;100702.09;5012882;28;8924;-65
2022/09/14 06:31:21;;;;;;;;;0.75;0.75;;;;;17.23;67.28;100707.53;5011801;28;8827;-65
2022/09/14 06:33:48;;;;;;;;;0.75;0.75;;;;;17.26;67.30;100704.34;5016601;28;8845;-65
2022/09/14 06:36:20;;;;;;;;;0.00;0.00;;;;;17.27;67.34;100701.38;5031458;28;9547;-65
2022/09/14 06:38:48;;;;;;;;;0.00;0.00;;;;;17.29;67.46;100693.78;5021101;28;8859;-65
2022/09/14 06:41:17;;;;;;;;;1.00;1.00;;;;;17.32;67.05;100697.09;5011892;28;8823;-65
2022/09/14 06:43:44;;;;;;;;;0.00;0.00;;;;;17.35;67.32;100693.91;5011553;28;8843;-65
2022/09/14 06:46:13;;;;;;;;;0.00;0.00;;;;;17.34;67.07;100687.63;5016713;28;8882;-65
2022/09/14 06:48:43;;;;;;;;;0.00;0.00;;;;;17.34;66.77;100686.78;5011343;28;8851;-65
2022/09/14 06:51:17;;;;;;;;;0.00;0.00;;;;;17.37;66.49;100684.41;5011474;28;8881;-65
2022/09/14 06:53:45;;;;;;;;;0.75;0.75;;;;;17.39;66.55;100684.19;5011756;28;8827;-65
2022/09/14 06:56:12;;;;;;;;;0.00;0.00;;;;;17.41;66.05;100685.56;5020316;28;8848;-65
2022/09/14 06:58:39;;;;;;;;;1.00;0.00;;;;;17.44;65.88;100687.00;5035248;28;9565;-65
2022/09/14 07:01:09;;;;;;;;;0.00;0.00;;;;;17.46;65.77;100685.69;5051151;28;8837;-65
2022/09/14 07:03:37;;;;;;;;;0.00;0.00;;;;;17.49;65.89;100690.63;5038732;28;8828;-65
2022/09/14 07:06:07;;;;;;;;;1.00;1.00;;;;;17.51;65.35;100683.06;5030892;28;8817;-65
2022/09/14 07:08:34;;;;;;;;;2.00;0.75;;;;;17.52;64.89;100679.25;5030212;28;8848;-65
2022/09/14 07:11:02;;;;;;;;;0.00;0.00;;;;;17.53;64.55;100697.22;5030940;28;8868;-65
2022/09/14 07:13:29;;;;;;;;;0.00;0.00;;;;;17.55;64.19;100705.16;5030242;28;8801;-65
2022/09/14 07:15:56;;;;;;;;;0.00;0.00;;;;;17.58;64.27;100698.41;5031298;28;8849;-65
2022/09/14 07:18:27;;;;;;;;;0.75;0.25;;;;;17.57;63.65;100681.25;5026834;28;8831;-65
2022/09/14 07:20:54;;;;;;;;;0.00;0.00;;;;;17.56;62.89;100690.50;5021871;28;8836;-65
2022/09/14 07:23:21;;;;;;;;;0.75;0.25;;;;;17.51;62.88;100691.22;5040304;28;8882;-65
2022/09/14 07:25:47;;;;;;;;;0.00;0.00;;;;;17.47;63.26;100698.22;5030586;28;8851;-65
2022/09/14 07:28:13;;;;;;;;;0.00;0.00;;;;;17.51;63.47;100695.84;5029716;28;8931;-66
2022/09/14 07:30:40;;;;;;;;;0.00;0.00;;;;;17.58;63.49;100698.41;5030104;28;8846;-65
2022/09/14 07:33:06;;;;;;;;;1.00;0.00;;;;;17.61;63.55;100698.75;5015838;28;9523;-65
2022/09/14 07:35:33;;;;;;;;;0.50;0.50;;;;;17.63;63.28;100687.63;5026492;28;8852;-65
2022/09/14 07:38:00;;;;;;;;;0.00;0.00;;;;;17.63;63.51;100696.63;5035997;28;8837;-65
2022/09/14 07:40:26;;;;;;;;;0.00;0.00;;;;;17.62;63.12;100702.28;5034194;28;8845;-65
2022/09/14 07:42:53;;;;;;;;;1.25;0.00;;;;;17.56;62.86;100693.22;5030093;28;8824;-65
2022/09/14 07:45:23;;;;;;;;;0.00;0.00;;;;;17.55;63.25;100697.00;5029124;28;8991;-65
2022/09/14 07:47:49;;;;;;;;;0.00;0.00;;;;;17.59;63.21;100700.91;5029561;28;8958;-65
2022/09/14 07:50:17;;;;;;;;;0.00;0.00;;;;;17.63;63.43;100702.06;5026062;28;8856;-65
2022/09/14 07:52:43;;;;;;;;;0.00;0.00;;;;;17.67;63.11;100703.22;5017424;28;8835;-65
2022/09/14 07:55:11;;;;;;;;;0.50;0.50;;;;;17.69;63.26;100698.34;5025053;28;8855;-65
2022/09/14 07:57:38;;;;;;;;;1.00;0.00;;;;;17.71;63.21;100701.66;5039021;28;9533;-66
2022/09/14 08:00:21;;;;;;;;;0.00;0.00;;;;;17.74;63.32;100693.03;5033266;28;9364;-65
2022/09/14 08:02:52;;;;;;;;;0.00;0.00;;;;;17.77;62.93;100697.97;5029946;28;8829;-65
2022/09/14 08:05:19;;;;;;;;;0.00;0.00;;;;;17.79;62.86;100687.69;5028986;28;8832;-65
2022/09/14 08:07:45;;;;;;;;;0.00;0.00;;;;;17.81;62.54;100698.31;5029985;28;8833;-65
2022/09/14 08:10:11;;;;;;;;;1.00;0.00;;;;;17.76;62.65;100690.06;5029427;28;8867;-65
2022/09/14 08:12:38;;;;;;;;;1.00;1.00;;;;;17.74;62.91;100687.59;5029046;28;8898;-65
2022/09/14 08:15:05;;;;;;;;;0.00;0.00;;;;;17.72;62.64;100686.16;5020727;28;8886;-65
2022/09/14 08:17:31;;;;;;;;;0.25;0.25;;;;;17.70;62.72;100685.56;5009736;28;8867;-65
2022/09/14 08:19:57;;;;;;;;;0.00;0.00;;;;;17.68;63.18;100683.09;5021872;28;8860;-64
2022/09/14 08:22:24;;;;;;;;;0.00;0.00;;;;;17.63;62.84;100684.91;5029895;28;9519;-64
2022/09/14 08:24:50;;;;;;;;;0.75;0.75;;;;;17.58;62.88;100676.63;5029910;28;8868;-64
2022/09/14 08:27:17;;;;;;;;;0.00;0.00;;;;;17.63;62.94;100679.47;5024822;28;8948;-64
2022/09/14 08:29:43;;;;;;;;;0.50;0.00;;;;;17.68;62.91;100685.00;5020426;28;8824;-65
2022/09/14 08:32:11;;;;;;;;;0.00;0.00;;;;;17.63;62.82;100685.72;5019980;28;9541;-65
2022/09/14 08:34:37;;;;;;;;;0.75;0.75;;;;;17.63;62.82;100674.84;5051908;28;8814;-65
2022/09/14 08:37:04;;;;;;;;;0.75;0.00;;;;;17.64;62.93;100676.47;5035862;28;8824;-65
2022/09/14 08:39:30;;;;;;;;;0.00;0.00;;;;;17.70;62.81;100674.66;5030995;28;8895;-65
2022/09/14 08:41:59;;;;;;;;;0.00;0.00;;;;;17.74;62.55;100671.25;5026295;28;8914;-66
2022/09/14 08:44:42;;;;;;;;;0.00;0.00;;;;;17.81;62.68;100670.25;5029554;28;8861;-64
2022/09/14 08:47:18;;;;;;;;;0.00;0.00;;;;;17.81;62.61;100672.97;5028650;28;8836;-64
2022/09/14 08:49:53;;;;;;;;;0.00;0.00;;;;;17.79;62.42;100673.25;5038121;28;8833;-64
2022/09/14 08:52:34;;;;;;;;;0.25;0.25;;;;;17.81;62.56;100670.25;5017696;28;8831;-64
2022/09/14 08:55:17;;;;;;;;;1.75;0.00;;;;;17.85;62.82;100674.13;5009740;28;8839;-65
2022/09/14 08:57:50;;;;;;;;;0.00;0.00;;;;;17.92;62.79;100667.47;5010123;28;8862;-65
2022/09/14 09:00:22;;;;;;;;;1.25;0.00;;;;;17.93;62.09;100666.38;5009740;28;8855;-65
2022/09/14 09:03:22;;;;;;;;;0.25;0.25;;;;;17.85;62.22;100669.53;5029655;28;8844;-65
2022/09/14 09:06:05;;;;;;;;;1.50;0.75;;;;;17.83;62.96;100660.78;5027758;28;8843;-65
2022/09/14 09:08:53;;;;;;;;;0.00;0.00;;;;;17.79;63.02;100665.91;5029377;28;8863;-65
2022/09/14 09:11:23;;;;;;;;;1.00;1.00;;;;;17.82;62.87;100663.75;5029254;28;8930;-65
2022/09/14 09:13:52;;;;;;;;;0.00;0.00;;;;;17.87;63.20;100663.84;5029243;28;8828;-65
2022/09/14 09:16:22;;;;;;;;;0.50;0.50;;;;;17.91;63.08;100670.44;5022375;28;8814;-65
2022/09/14 09:18:58;;;;;;;;;2.25;0.00;;;;;17.94;62.96;100668.03;5011072;28;8945;-65
2022/09/14 09:21:34;;;;;;;;;0.00;0.00;;;;;17.98;62.64;100665.63;5017272;28;8832;-65
2022/09/14 09:24:19;;;;;;;;;0.25;0.25;;;;;18.02;62.63;100672.25;5029413;28;8828;-65
2022/09/14 09:26:45;;;;;;;;;0.00;0.00;;;;;18.08;62.72;100676.72;5018678;28;8842;-65
2022/09/14 09:29:12;;;;;;;;;0.50;0.50;;;;;18.12;62.73;100669.69;5009763;28;8883;-65
2022/09/14 09:31:57;;;;;;;;;0.75;0.00;;;;;18.11;62.06;100676.22;5009698;28;9684;-64
2022/09/14 09:34:44;;;;;;;;;0.00;0.00;;;;;18.07;62.32;100680.53;5004062;28;8836;-66
2022/09/14 09:37:23;;;;;;;;;0.00;0.00;;;;;18.08;62.30;100673.16;5026545;28;8910;-66
2022/09/14 09:39:50;;;;;;;;;1.00;1.00;;;;;18.09;62.03;100672.91;5029137;28;8844;-66
2022/09/14 09:42:24;;;;;;;;;0.00;0.00;;;;;18.08;61.89;100673.16;5031781;28;8824;-66
2022/09/14 09:45:00;;;;;;;;;0.00;0.00;;;;;18.02;62.49;100672.25;5031233;28;8921;-66
2022/09/14 09:47:31;;;;;;;;;0.75;0.00;;;;;18.03;62.20;100665.75;5016355;28;8831;-66
2022/09/14 09:50:01;;;;;;;;;0.75;0.75;;;;;17.99;61.95;100661.88;5017080;28;9565;-67
2022/09/14 09:52:29;;;;;;;;;0.00;0.00;;;;;17.94;62.18;100659.03;5035873;28;8816;-66
2022/09/14 09:54:57;;;;;;;;;0.00;0.00;;;;;17.93;62.21;100651.94;5032552;28;9002;-66
2022/09/14 09:57:32;;;;;;;;;0.00;0.00;;;;;17.95;62.07;100660.72;5030949;28;8848;-65
2022/09/14 10:00:19;;;;;;;;;0.00;0.00;;;;;18.00;61.85;100655.34;5028194;28;9650;-65
2022/09/14 10:02:46;;;;;;;;;0.00;0.00;;;;;18.02;61.89;100655.91;5045825;28;8895;-66
2022/09/14 10:05:12;;;;;;;;;0.00;0.00;;;;;18.02;61.38;100664.06;5052041;28;8954;-66
2022/09/14 10:07:52;;;;;;;;;0.00;0.00;;;;;17.96;61.68;100652.28;5045578;28;9561;-66
2022/09/14 10:10:43;;;;;;;;;0.00;0.00;;;;;17.91;61.76;100657.66;5031547;28;8828;-66
2022/09/14 10:13:29;;;;;;;;;1.25;1.00;;;;;17.95;61.84;100655.25;5031744;28;8833;-65
2022/09/14 10:16:15;;;;;;;;;0.00;0.00;;;;;17.97;61.71;100650.38;5030812;28;8879;-65
2022/09/14 10:18:45;;;;;;;;;0.75;0.75;;;;;18.01;61.70;100646.09;5023379;28;8835;-65
2022/09/14 10:21:16;;;;;;;;;0.25;0.25;;;;;18.02;61.04;100647.72;5017294;28;8844;-65
2022/09/14 10:23:43;;;;;;;;;0.00;0.00;;;;;18.01;61.42;100649.63;5026535;28;8864;-65
2022/09/14 10:26:12;;;;;;;;;0.75;0.75;;;;;18.03;61.14;100646.69;5031002;28;8844;-65
2022/09/14 10:28:49;;;;;;;;;2.75;0.75;;;;;18.05;61.06;100655.41;5030814;28;8878;-65
2022/09/14 10:31:18;;;;;;;;;0.00;0.00;;;;;18.01;60.56;100644.19;5031832;28;8953;-65
2022/09/14 10:33:48;;;;;;;;;0.00;0.00;;;;;17.97;61.16;100643.03;5030822;28;8837;-65
2022/09/14 10:36:30;;;;;;;;;0.00;0.00;;;;;18.08;61.45;100640.47;5031791;28;8843;-65
2022/09/14 10:39:15;;;;;;;;;0.00;0.00;;;;;18.15;61.55;100644.69;5031703;28;8844;-65
2022/09/14 10:42:11;;;;;;;;;0.00;0.00;;;;;18.15;61.15;100639.25;5034449;28;8842;-65
2022/09/14 10:45:16;;;;;;;;;0.00;0.00;;;;;18.14;61.31;100632.13;5016758;28;8979;-65
2022/09/14 10:47:54;;;;;;;;;1.50;0.50;;;;;18.10;61.04;100639.13;4989587;28;8914;-65
2022/09/14 10:50:51;;;;;;;;;0.00;0.00;;;;;18.14;60.98;100632.13;4989578;28;8884;-65
2022/09/14 10:53:30;;;;;;;;;0.00;0.00;;;;;18.19;60.86;100640.38;5008022;28;8855;-65
2022/09/14 10:56:18;;;;;;;;;0.00;0.00;;;;;18.16;60.97;100640.88;5049221;28;8818;-65
2022/09/14 10:58:47;;;;;;;;;0.00;0.00;;;;;18.24;60.14;100643.19;5018169;28;8839;-65
2022/09/14 11:01:32;;;;;;;;;0.00;0.00;;;;;18.31;59.34;100628.53;5011397;28;9580;-66
2022/09/14 11:04:23;;;;;;;;;1.00;1.00;;;;;18.28;59.02;100638.06;5011243;28;8938;-66
2022/09/14 11:07:12;;;;;;;;;0.00;0.00;;;;;18.24;59.36;100634.19;5013657;28;8823;-65
2022/09/14 11:10:14;;;;;;;;;1.00;1.00;;;;;18.25;59.32;100636.66;5025143;28;8831;-65
2022/09/14 11:13:22;;;;;;;;;1.00;0.75;;;;;18.29;58.84;100635.06;4991843;28;8855;-66
2022/09/14 11:16:07;;;;;;;;;0.00;0.00;;;;;18.37;58.62;100628.38;5029651;28;8824;-65
2022/09/14 11:19:02;;;;;;;;;2.25;0.00;;;;;18.45;58.07;100638.03;5017737;28;9614;-65
2022/09/14 11:21:48;;;;;;;;;1.00;0.50;;;;;18.50;57.27;100633.47;5010984;28;8843;-65
2022/09/14 11:24:27;;;;;;;;;2.25;0.00;;;;;18.52;57.56;100638.69;5011072;28;8819;-65
2022/09/14 11:27:02;;;;;;;;;2.25;0.50;;;;;18.56;57.01;100642.53;5025944;28;8869;-65
2022/09/14 11:29:38;;;;;;;;;0.25;0.25;;;;;18.48;55.73;100643.81;5025847;28;8856;-65
2022/09/14 11:32:11;;;;;;;;;0.00;0.00;;;;;18.41;55.94;100642.31;5010813;28;9530;-65
2022/09/14 11:35:02;;;;;;;;;0.00;0.00;;;;;18.44;56.51;100637.19;5028562;28;8832;-65
2022/09/14 11:37:38;;;;;;;;;2.00;1.00;;;;;18.42;56.48;100627.63;5030198;28;8843;-65
2022/09/14 11:40:09;;;;;;;;;0.75;0.75;;;;;18.36;56.32;100629.47;5030423;28;8825;-65
2022/09/14 11:42:47;;;;;;;;;0.00;0.00;;;;;18.37;56.19;100630.28;5016623;28;8823;-65
2022/09/14 11:45:24;;;;;;;;;0.00;0.00;;;;;18.43;56.66;100637.44;5027282;28;8859;-65
2022/09/14 11:48:09;;;;;;;;;2.50;1.50;;;;;18.44;56.81;100639.09;5010134;28;8838;-65
2022/09/14 11:51:04;;;;;;;;;0.00;0.00;;;;;18.49;55.01;100644.63;5010481;28;8909;-65
2022/09/14 11:53:32;;;;;;;;;0.00;0.00;;;;;18.52;54.80;100636.78;5010470;28;8823;-65
2022/09/14 11:55:59;;;;;;;;;0.50;0.00;;;;;18.61;53.96;100639.06;5017499;28;8841;-65
2022/09/14 11:58:30;;;;;;;;;0.00;0.00;;;;;18.64;53.85;100633.09;5029507;28;8833;-65